sensor_id;sensor_type;location;lat;lon;timestamp;P1;durP1;ratioP1;P2;durP2;ratioP2
38851;SDS011;24605;50.092;9.182;2024-03-25T00:00:25;5.15;;;1.92;;
38851;SDS011;24605;50.092;9.182;2024-03-25T00:02:51;8.13;;;2.15;;
38851;SDS011;24605;50.092;9.182;2024-03-25T00:05:17;7.72;;;2.00;;
38851;SDS011;24605;50.092;9.182;2024-03-25T00:07:47;7.95;;;2.05;;
38851;SDS011;24605;50.092;9.182;2024-03-25T00:10:13;6.25;;;2.10;;
38851;SDS011;24605;50.092;9.182;2024-03-25T00:12:39;4.72;;;1.70;;
38851;SDS011;24605;50.092;9.182;2024-03-25T00:15:05;6.93;;;2.00;;
38851;SDS011;24605;50.092;9.182;2024-03-25T00:17:32;7.25;;;2.03;;
38851;SDS011;24605;50.092;9.182;2024-03-25T00:19:57;5.65;;;1.83;;
38851;SDS011;24605;50.092;9.182;2024-03-25T00:22:24;7.07;;;1.80;;
38851;SDS011;24605;50.092;9.182;2024-03-25T00:24:50;5.45;;;1.88;;
38851;SDS011;24605;50.092;9.182;2024-03-25T00:27:17;7.85;;;2.28;;
38851;SDS011;24605;50.092;9.182;2024-03-25T00:29:43;7.78;;;1.88;;
38851;SDS011;24605;50.092;9.182;2024-03-25T00:32:10;5.45;;;1.98;;
38851;SDS011;24605;50.092;9.182;2024-03-25T00:34:36;5.55;;;1.60;;
38851;SDS011;24605;50.092;9.182;2024-03-25T00:37:03;7.88;;;1.83;;
38851;SDS011;24605;50.092;9.182;2024-03-25T00:39:29;6.07;;;1.70;;
38851;SDS011;24605;50.092;9.182;2024-03-25T00:41:57;4.68;;;1.60;;
38851;SDS011;24605;50.092;9.182;2024-03-25T00:44:23;7.28;;;1.60;;
38851;SDS011;24605;50.092;9.182;2024-03-25T00:46:49;8.60;;;2.25;;
38851;SDS011;24605;50.092;9.182;2024-03-25T00:49:15;4.63;;;1.55;;
38851;SDS011;24605;50.092;9.182;2024-03-25T00:51:41;6.40;;;1.40;;
38851;SDS011;24605;50.092;9.182;2024-03-25T00:54:07;7.55;;;1.80;;
38851;SDS011;24605;50.092;9.182;2024-03-25T00:56:33;5.85;;;1.40;;
38851;SDS011;24605;50.092;9.182;2024-03-25T00:58:59;8.05;;;1.90;;
38851;SDS011;24605;50.092;9.182;2024-03-25T01:01:30;5.78;;;1.60;;
38851;SDS011;24605;50.092;9.182;2024-03-25T01:03:56;10.73;;;2.03;;
38851;SDS011;24605;50.092;9.182;2024-03-25T01:06:23;7.28;;;1.92;;
38851;SDS011;24605;50.092;9.182;2024-03-25T01:08:49;10.30;;;2.10;;
38851;SDS011;24605;50.092;9.182;2024-03-25T01:11:16;5.20;;;1.67;;
38851;SDS011;24605;50.092;9.182;2024-03-25T01:13:42;7.03;;;1.42;;
38851;SDS011;24605;50.092;9.182;2024-03-25T01:16:09;9.02;;;1.75;;
38851;SDS011;24605;50.092;9.182;2024-03-25T01:18:34;9.90;;;1.75;;
38851;SDS011;24605;50.092;9.182;2024-03-25T01:21:01;9.38;;;1.98;;
38851;SDS011;24605;50.092;9.182;2024-03-25T01:23:27;10.45;;;1.90;;
38851;SDS011;24605;50.092;9.182;2024-03-25T01:25:53;9.18;;;1.80;;
38851;SDS011;24605;50.092;9.182;2024-03-25T01:28:19;8.02;;;1.85;;
38851;SDS011;24605;50.092;9.182;2024-03-25T01:30:46;7.15;;;2.13;;
38851;SDS011;24605;50.092;9.182;2024-03-25T01:33:11;7.88;;;2.22;;
38851;SDS011;24605;50.092;9.182;2024-03-25T01:35:37;9.52;;;2.50;;
38851;SDS011;24605;50.092;9.182;2024-03-25T01:38:03;11.93;;;2.95;;
38851;SDS011;24605;50.092;9.182;2024-03-25T01:40:29;6.88;;;2.00;;
38851;SDS011;24605;50.092;9.182;2024-03-25T01:43:04;8.10;;;2.50;;
38851;SDS011;24605;50.092;9.182;2024-03-25T01:45:31;6.25;;;2.38;;
38851;SDS011;24605;50.092;9.182;2024-03-25T01:47:58;11.20;;;2.97;;
38851;SDS011;24605;50.092;9.182;2024-03-25T01:50:27;9.32;;;2.97;;
38851;SDS011;24605;50.092;9.182;2024-03-25T01:52:54;12.57;;;3.05;;
38851;SDS011;24605;50.092;9.182;2024-03-25T01:55:21;9.13;;;2.85;;
38851;SDS011;24605;50.092;9.182;2024-03-25T01:57:49;12.38;;;2.80;;
38851;SDS011;24605;50.092;9.182;2024-03-25T02:00:17;12.18;;;2.45;;
38851;SDS011;24605;50.092;9.182;2024-03-25T02:02:43;8.15;;;2.80;;
38851;SDS011;24605;50.092;9.182;2024-03-25T02:05:11;12.90;;;2.95;;
38851;SDS011;24605;50.092;9.182;2024-03-25T02:07:37;11.68;;;3.10;;
38851;SDS011;24605;50.092;9.182;2024-03-25T02:10:06;7.95;;;2.78;;
38851;SDS011;24605;50.092;9.182;2024-03-25T02:12:32;9.43;;;3.00;;
38851;SDS011;24605;50.092;9.182;2024-03-25T02:14:59;10.63;;;2.70;;
38851;SDS011;24605;50.092;9.182;2024-03-25T02:17:25;10.77;;;3.38;;
38851;SDS011;24605;50.092;9.182;2024-03-25T02:19:51;9.68;;;2.53;;
38851;SDS011;24605;50.092;9.182;2024-03-25T02:22:17;8.07;;;2.72;;
38851;SDS011;24605;50.092;9.182;2024-03-25T02:24:45;8.75;;;2.30;;
38851;SDS011;24605;50.092;9.182;2024-03-25T02:27:14;5.53;;;2.47;;
38851;SDS011;24605;50.092;9.182;2024-03-25T02:29:42;10.13;;;2.55;;
38851;SDS011;24605;50.092;9.182;2024-03-25T02:32:07;10.25;;;2.42;;
38851;SDS011;24605;50.092;9.182;2024-03-25T02:34:44;12.48;;;2.70;;
38851;SDS011;24605;50.092;9.182;2024-03-25T02:37:12;6.65;;;2.30;;
38851;SDS011;24605;50.092;9.182;2024-03-25T02:39:39;9.55;;;2.33;;
38851;SDS011;24605;50.092;9.182;2024-03-25T02:42:04;8.38;;;2.30;;
38851;SDS011;24605;50.092;9.182;2024-03-25T02:46:59;5.97;;;1.95;;
38851;SDS011;24605;50.092;9.182;2024-03-25T02:49:25;7.25;;;2.03;;
38851;SDS011;24605;50.092;9.182;2024-03-25T02:51:51;8.65;;;2.22;;
38851;SDS011;24605;50.092;9.182;2024-03-25T02:54:17;10.15;;;2.35;;
38851;SDS011;24605;50.092;9.182;2024-03-25T02:56:43;9.52;;;2.50;;
38851;SDS011;24605;50.092;9.182;2024-03-25T02:59:10;9.85;;;2.20;;
38851;SDS011;24605;50.092;9.182;2024-03-25T03:01:35;9.15;;;2.55;;
38851;SDS011;24605;50.092;9.182;2024-03-25T03:04:02;6.90;;;2.20;;
38851;SDS011;24605;50.092;9.182;2024-03-25T03:06:27;6.88;;;1.98;;
38851;SDS011;24605;50.092;9.182;2024-03-25T03:08:54;8.00;;;2.30;;
38851;SDS011;24605;50.092;9.182;2024-03-25T03:11:19;9.10;;;2.13;;
38851;SDS011;24605;50.092;9.182;2024-03-25T03:13:46;8.80;;;2.63;;
38851;SDS011;24605;50.092;9.182;2024-03-25T03:16:11;8.30;;;2.15;;
38851;SDS011;24605;50.092;9.182;2024-03-25T03:18:39;9.60;;;2.40;;
38851;SDS011;24605;50.092;9.182;2024-03-25T03:21:05;8.00;;;2.25;;
38851;SDS011;24605;50.092;9.182;2024-03-25T03:23:31;7.30;;;2.65;;
38851;SDS011;24605;50.092;9.182;2024-03-25T03:25:56;9.38;;;2.65;;
38851;SDS011;24605;50.092;9.182;2024-03-25T03:28:24;9.48;;;2.50;;
38851;SDS011;24605;50.092;9.182;2024-03-25T03:30:50;10.70;;;2.22;;
38851;SDS011;24605;50.092;9.182;2024-03-25T03:33:16;9.82;;;2.30;;
38851;SDS011;24605;50.092;9.182;2024-03-25T03:35:42;9.38;;;2.45;;
38851;SDS011;24605;50.092;9.182;2024-03-25T03:38:09;7.32;;;2.28;;
38851;SDS011;24605;50.092;9.182;2024-03-25T03:40:34;9.68;;;2.88;;
38851;SDS011;24605;50.092;9.182;2024-03-25T03:43:00;11.38;;;2.58;;
38851;SDS011;24605;50.092;9.182;2024-03-25T03:45:26;11.93;;;2.58;;
38851;SDS011;24605;50.092;9.182;2024-03-25T03:47:52;8.70;;;2.30;;
38851;SDS011;24605;50.092;9.182;2024-03-25T03:50:18;6.05;;;2.38;;
38851;SDS011;24605;50.092;9.182;2024-03-25T03:52:44;8.18;;;2.53;;
38851;SDS011;24605;50.092;9.182;2024-03-25T03:55:09;8.88;;;2.53;;
38851;SDS011;24605;50.092;9.182;2024-03-25T03:57:36;13.07;;;2.55;;
38851;SDS011;24605;50.092;9.182;2024-03-25T04:00:02;11.85;;;2.55;;
38851;SDS011;24605;50.092;9.182;2024-03-25T04:02:29;12.05;;;2.55;;
38851;SDS011;24605;50.092;9.182;2024-03-25T04:04:57;17.45;;;3.65;;
38851;SDS011;24605;50.092;9.182;2024-03-25T04:07:23;7.95;;;2.25;;
38851;SDS011;24605;50.092;9.182;2024-03-25T04:09:52;14.45;;;2.92;;
38851;SDS011;24605;50.092;9.182;2024-03-25T04:12:19;12.43;;;2.88;;
38851;SDS011;24605;50.092;9.182;2024-03-25T04:14:48;9.25;;;2.30;;
38851;SDS011;24605;50.092;9.182;2024-03-25T04:17:19;10.10;;;2.45;;
38851;SDS011;24605;50.092;9.182;2024-03-25T04:19:46;8.75;;;2.65;;
38851;SDS011;24605;50.092;9.182;2024-03-25T04:22:12;10.07;;;2.35;;
38851;SDS011;24605;50.092;9.182;2024-03-25T04:24:38;9.15;;;2.33;;
38851;SDS011;24605;50.092;9.182;2024-03-25T04:27:04;9.52;;;2.60;;
38851;SDS011;24605;50.092;9.182;2024-03-25T04:29:30;10.55;;;2.55;;
38851;SDS011;24605;50.092;9.182;2024-03-25T04:31:56;13.63;;;2.85;;
38851;SDS011;24605;50.092;9.182;2024-03-25T04:34:21;6.85;;;2.42;;
38851;SDS011;24605;50.092;9.182;2024-03-25T04:36:48;11.07;;;2.30;;
38851;SDS011;24605;50.092;9.182;2024-03-25T04:39:14;9.00;;;2.75;;
38851;SDS011;24605;50.092;9.182;2024-03-25T04:41:39;10.95;;;2.42;;
38851;SDS011;24605;50.092;9.182;2024-03-25T04:44:05;11.77;;;2.40;;
38851;SDS011;24605;50.092;9.182;2024-03-25T04:46:30;12.82;;;2.40;;
38851;SDS011;24605;50.092;9.182;2024-03-25T04:48:56;7.25;;;2.25;;
38851;SDS011;24605;50.092;9.182;2024-03-25T04:51:21;10.10;;;2.47;;
38851;SDS011;24605;50.092;9.182;2024-03-25T04:53:46;10.52;;;3.05;;
38851;SDS011;24605;50.092;9.182;2024-03-25T04:56:12;14.15;;;2.97;;
38851;SDS011;24605;50.092;9.182;2024-03-25T04:58:38;11.75;;;2.30;;
38851;SDS011;24605;50.092;9.182;2024-03-25T05:01:04;7.80;;;2.15;;
38851;SDS011;24605;50.092;9.182;2024-03-25T05:03:29;11.73;;;2.30;;
38851;SDS011;24605;50.092;9.182;2024-03-25T05:05:55;11.32;;;2.58;;
38851;SDS011;24605;50.092;9.182;2024-03-25T05:08:20;8.32;;;2.10;;
38851;SDS011;24605;50.092;9.182;2024-03-25T05:10:46;11.07;;;2.88;;
38851;SDS011;24605;50.092;9.182;2024-03-25T05:13:11;8.95;;;2.42;;
38851;SDS011;24605;50.092;9.182;2024-03-25T05:15:37;10.75;;;2.55;;
38851;SDS011;24605;50.092;9.182;2024-03-25T05:18:02;10.40;;;2.15;;
38851;SDS011;24605;50.092;9.182;2024-03-25T05:20:28;9.93;;;2.63;;
38851;SDS011;24605;50.092;9.182;2024-03-25T05:22:53;7.22;;;2.50;;
38851;SDS011;24605;50.092;9.182;2024-03-25T05:25:19;9.20;;;2.50;;
38851;SDS011;24605;50.092;9.182;2024-03-25T05:27:44;9.85;;;2.72;;
38851;SDS011;24605;50.092;9.182;2024-03-25T05:30:10;10.00;;;3.03;;
38851;SDS011;24605;50.092;9.182;2024-03-25T05:32:36;10.40;;;2.53;;
38851;SDS011;24605;50.092;9.182;2024-03-25T05:35:01;12.75;;;2.95;;
38851;SDS011;24605;50.092;9.182;2024-03-25T05:37:27;9.80;;;2.83;;
38851;SDS011;24605;50.092;9.182;2024-03-25T05:39:52;9.05;;;2.30;;
38851;SDS011;24605;50.092;9.182;2024-03-25T05:42:18;13.32;;;3.00;;
38851;SDS011;24605;50.092;9.182;2024-03-25T05:44:45;13.38;;;2.72;;
38851;SDS011;24605;50.092;9.182;2024-03-25T05:47:10;11.50;;;2.65;;
38851;SDS011;24605;50.092;9.182;2024-03-25T05:49:36;12.68;;;3.35;;
38851;SDS011;24605;50.092;9.182;2024-03-25T05:52:01;12.73;;;3.22;;
38851;SDS011;24605;50.092;9.182;2024-03-25T05:54:27;12.55;;;2.67;;
38851;SDS011;24605;50.092;9.182;2024-03-25T05:56:53;14.40;;;2.92;;
38851;SDS011;24605;50.092;9.182;2024-03-25T05:59:18;13.95;;;3.50;;
38851;SDS011;24605;50.092;9.182;2024-03-25T06:01:43;12.25;;;2.30;;
38851;SDS011;24605;50.092;9.182;2024-03-25T06:04:09;8.07;;;3.00;;
38851;SDS011;24605;50.092;9.182;2024-03-25T06:06:34;9.02;;;2.90;;
38851;SDS011;24605;50.092;9.182;2024-03-25T06:09:00;8.55;;;2.97;;
38851;SDS011;24605;50.092;9.182;2024-03-25T06:11:25;10.75;;;2.78;;
38851;SDS011;24605;50.092;9.182;2024-03-25T06:13:51;16.02;;;3.58;;
38851;SDS011;24605;50.092;9.182;2024-03-25T06:16:16;10.43;;;2.50;;
38851;SDS011;24605;50.092;9.182;2024-03-25T06:18:42;8.52;;;2.28;;
38851;SDS011;24605;50.092;9.182;2024-03-25T06:21:07;8.80;;;3.17;;
38851;SDS011;24605;50.092;9.182;2024-03-25T06:23:33;9.77;;;3.22;;
38851;SDS011;24605;50.092;9.182;2024-03-25T06:25:58;9.68;;;2.58;;
38851;SDS011;24605;50.092;9.182;2024-03-25T06:28:24;8.85;;;2.65;;
38851;SDS011;24605;50.092;9.182;2024-03-25T06:30:50;9.43;;;2.60;;
38851;SDS011;24605;50.092;9.182;2024-03-25T06:33:35;12.57;;;3.40;;
38851;SDS011;24605;50.092;9.182;2024-03-25T06:36:19;8.93;;;2.75;;
38851;SDS011;24605;50.092;9.182;2024-03-25T06:38:45;10.32;;;3.00;;
38851;SDS011;24605;50.092;9.182;2024-03-25T06:41:11;16.13;;;3.28;;
38851;SDS011;24605;50.092;9.182;2024-03-25T06:43:37;12.90;;;3.05;;
38851;SDS011;24605;50.092;9.182;2024-03-25T06:46:02;11.30;;;2.80;;
38851;SDS011;24605;50.092;9.182;2024-03-25T06:48:28;9.32;;;2.90;;
38851;SDS011;24605;50.092;9.182;2024-03-25T06:50:57;11.05;;;2.80;;
38851;SDS011;24605;50.092;9.182;2024-03-25T06:53:23;10.75;;;3.03;;
38851;SDS011;24605;50.092;9.182;2024-03-25T06:55:59;12.07;;;3.35;;
38851;SDS011;24605;50.092;9.182;2024-03-25T06:58:25;8.88;;;2.88;;
38851;SDS011;24605;50.092;9.182;2024-03-25T07:00:52;8.68;;;2.67;;
38851;SDS011;24605;50.092;9.182;2024-03-25T07:03:19;17.13;;;3.30;;
38851;SDS011;24605;50.092;9.182;2024-03-25T07:05:46;12.23;;;3.05;;
38851;SDS011;24605;50.092;9.182;2024-03-25T07:08:12;11.70;;;3.08;;
38851;SDS011;24605;50.092;9.182;2024-03-25T07:10:38;8.93;;;2.63;;
38851;SDS011;24605;50.092;9.182;2024-03-25T07:13:07;13.65;;;3.08;;
38851;SDS011;24605;50.092;9.182;2024-03-25T07:15:32;8.48;;;2.80;;
38851;SDS011;24605;50.092;9.182;2024-03-25T07:17:58;12.95;;;3.22;;
38851;SDS011;24605;50.092;9.182;2024-03-25T07:20:24;11.90;;;2.70;;
38851;SDS011;24605;50.092;9.182;2024-03-25T07:22:49;9.63;;;2.70;;
38851;SDS011;24605;50.092;9.182;2024-03-25T07:25:15;9.60;;;2.50;;
38851;SDS011;24605;50.092;9.182;2024-03-25T07:27:40;11.25;;;2.83;;
38851;SDS011;24605;50.092;9.182;2024-03-25T07:30:06;12.75;;;2.92;;
38851;SDS011;24605;50.092;9.182;2024-03-25T07:32:33;13.10;;;4.07;;
38851;SDS011;24605;50.092;9.182;2024-03-25T07:34:59;7.43;;;2.65;;
38851;SDS011;24605;50.092;9.182;2024-03-25T07:37:25;14.10;;;2.88;;
38851;SDS011;24605;50.092;9.182;2024-03-25T07:39:50;14.23;;;2.70;;
38851;SDS011;24605;50.092;9.182;2024-03-25T07:42:16;11.68;;;2.75;;
38851;SDS011;24605;50.092;9.182;2024-03-25T07:44:41;12.63;;;2.83;;
38851;SDS011;24605;50.092;9.182;2024-03-25T07:47:07;12.98;;;2.80;;
38851;SDS011;24605;50.092;9.182;2024-03-25T07:49:32;10.20;;;2.53;;
38851;SDS011;24605;50.092;9.182;2024-03-25T07:51:59;8.70;;;2.35;;
38851;SDS011;24605;50.092;9.182;2024-03-25T07:54:25;12.20;;;2.95;;
38851;SDS011;24605;50.092;9.182;2024-03-25T07:56:51;11.35;;;2.60;;
38851;SDS011;24605;50.092;9.182;2024-03-25T07:59:17;7.43;;;2.25;;
38851;SDS011;24605;50.092;9.182;2024-03-25T08:01:42;12.45;;;2.72;;
38851;SDS011;24605;50.092;9.182;2024-03-25T08:04:08;12.95;;;3.40;;
38851;SDS011;24605;50.092;9.182;2024-03-25T08:06:33;10.75;;;2.42;;
38851;SDS011;24605;50.092;9.182;2024-03-25T08:08:59;13.20;;;3.28;;
38851;SDS011;24605;50.092;9.182;2024-03-25T08:11:24;15.13;;;2.88;;
38851;SDS011;24605;50.092;9.182;2024-03-25T08:13:50;8.60;;;2.40;;
38851;SDS011;24605;50.092;9.182;2024-03-25T08:16:15;10.90;;;3.00;;
38851;SDS011;24605;50.092;9.182;2024-03-25T08:18:41;11.10;;;2.80;;
38851;SDS011;24605;50.092;9.182;2024-03-25T08:21:06;12.25;;;2.63;;
38851;SDS011;24605;50.092;9.182;2024-03-25T08:23:32;10.98;;;2.63;;
38851;SDS011;24605;50.092;9.182;2024-03-25T08:25:57;12.35;;;2.50;;
38851;SDS011;24605;50.092;9.182;2024-03-25T08:28:23;10.55;;;2.50;;
38851;SDS011;24605;50.092;9.182;2024-03-25T08:30:48;13.15;;;2.65;;
38851;SDS011;24605;50.092;9.182;2024-03-25T08:33:14;10.63;;;2.88;;
38851;SDS011;24605;50.092;9.182;2024-03-25T08:35:39;15.10;;;3.17;;
38851;SDS011;24605;50.092;9.182;2024-03-25T08:38:05;13.45;;;2.50;;
38851;SDS011;24605;50.092;9.182;2024-03-25T08:40:30;11.52;;;2.25;;
38851;SDS011;24605;50.092;9.182;2024-03-25T08:42:55;11.90;;;2.53;;
38851;SDS011;24605;50.092;9.182;2024-03-25T08:45:21;10.50;;;2.47;;
38851;SDS011;24605;50.092;9.182;2024-03-25T08:47:46;8.82;;;2.25;;
38851;SDS011;24605;50.092;9.182;2024-03-25T08:50:12;15.45;;;2.47;;
38851;SDS011;24605;50.092;9.182;2024-03-25T08:52:37;19.50;;;2.92;;
38851;SDS011;24605;50.092;9.182;2024-03-25T08:55:04;8.80;;;2.30;;
38851;SDS011;24605;50.092;9.182;2024-03-25T08:57:29;11.13;;;2.13;;
38851;SDS011;24605;50.092;9.182;2024-03-25T08:59:55;9.98;;;2.47;;
38851;SDS011;24605;50.092;9.182;2024-03-25T09:02:20;10.63;;;2.00;;
38851;SDS011;24605;50.092;9.182;2024-03-25T09:04:47;9.02;;;2.17;;
38851;SDS011;24605;50.092;9.182;2024-03-25T09:07:13;12.15;;;2.47;;
38851;SDS011;24605;50.092;9.182;2024-03-25T09:09:39;7.72;;;1.83;;
38851;SDS011;24605;50.092;9.182;2024-03-25T09:12:38;11.13;;;2.38;;
38851;SDS011;24605;50.092;9.182;2024-03-25T09:15:04;9.88;;;2.33;;
38851;SDS011;24605;50.092;9.182;2024-03-25T09:17:30;11.02;;;2.25;;
38851;SDS011;24605;50.092;9.182;2024-03-25T09:19:55;10.95;;;2.30;;
38851;SDS011;24605;50.092;9.182;2024-03-25T09:22:20;15.55;;;2.70;;
38851;SDS011;24605;50.092;9.182;2024-03-25T09:24:46;12.07;;;2.55;;
38851;SDS011;24605;50.092;9.182;2024-03-25T09:27:11;12.77;;;2.60;;
38851;SDS011;24605;50.092;9.182;2024-03-25T09:29:37;13.27;;;2.35;;
38851;SDS011;24605;50.092;9.182;2024-03-25T09:32:02;10.07;;;2.63;;
38851;SDS011;24605;50.092;9.182;2024-03-25T09:34:28;13.98;;;2.20;;
38851;SDS011;24605;50.092;9.182;2024-03-25T09:36:53;10.27;;;2.30;;
38851;SDS011;24605;50.092;9.182;2024-03-25T09:39:19;11.50;;;2.85;;
38851;SDS011;24605;50.092;9.182;2024-03-25T09:41:45;11.93;;;2.60;;
38851;SDS011;24605;50.092;9.182;2024-03-25T09:44:12;11.90;;;2.53;;
38851;SDS011;24605;50.092;9.182;2024-03-25T09:46:38;9.13;;;2.17;;
38851;SDS011;24605;50.092;9.182;2024-03-25T09:49:03;14.48;;;2.50;;
38851;SDS011;24605;50.092;9.182;2024-03-25T09:51:29;8.80;;;2.53;;
38851;SDS011;24605;50.092;9.182;2024-03-25T09:53:54;11.27;;;2.50;;
38851;SDS011;24605;50.092;9.182;2024-03-25T09:56:20;8.70;;;2.75;;
38851;SDS011;24605;50.092;9.182;2024-03-25T09:58:45;9.30;;;2.03;;
38851;SDS011;24605;50.092;9.182;2024-03-25T10:01:11;12.82;;;2.22;;
38851;SDS011;24605;50.092;9.182;2024-03-25T10:03:37;8.85;;;2.30;;
38851;SDS011;24605;50.092;9.182;2024-03-25T10:06:02;8.60;;;1.95;;
38851;SDS011;24605;50.092;9.182;2024-03-25T10:08:28;15.20;;;2.83;;
38851;SDS011;24605;50.092;9.182;2024-03-25T10:10:54;9.48;;;2.22;;
38851;SDS011;24605;50.092;9.182;2024-03-25T10:13:19;10.18;;;3.08;;
38851;SDS011;24605;50.092;9.182;2024-03-25T10:15:47;12.32;;;2.40;;
38851;SDS011;24605;50.092;9.182;2024-03-25T10:18:13;12.02;;;2.33;;
38851;SDS011;24605;50.092;9.182;2024-03-25T10:20:38;12.68;;;2.35;;
38851;SDS011;24605;50.092;9.182;2024-03-25T10:23:12;9.30;;;1.92;;
38851;SDS011;24605;50.092;9.182;2024-03-25T10:25:38;6.40;;;2.00;;
38851;SDS011;24605;50.092;9.182;2024-03-25T10:28:04;8.85;;;2.28;;
38851;SDS011;24605;50.092;9.182;2024-03-25T10:30:29;11.88;;;2.08;;
38851;SDS011;24605;50.092;9.182;2024-03-25T10:35:27;8.32;;;2.22;;
38851;SDS011;24605;50.092;9.182;2024-03-25T10:37:55;8.32;;;2.47;;
38851;SDS011;24605;50.092;9.182;2024-03-25T10:40:32;9.07;;;2.17;;
38851;SDS011;24605;50.092;9.182;2024-03-25T10:45:32;11.50;;;2.33;;
38851;SDS011;24605;50.092;9.182;2024-03-25T10:48:03;11.20;;;2.20;;
38851;SDS011;24605;50.092;9.182;2024-03-25T10:50:34;8.85;;;2.25;;
38851;SDS011;24605;50.092;9.182;2024-03-25T10:53:00;8.60;;;1.70;;
38851;SDS011;24605;50.092;9.182;2024-03-25T10:55:29;10.05;;;2.30;;
38851;SDS011;24605;50.092;9.182;2024-03-25T10:57:57;9.07;;;2.33;;
38851;SDS011;24605;50.092;9.182;2024-03-25T11:00:23;8.88;;;2.05;;
38851;SDS011;24605;50.092;9.182;2024-03-25T11:02:48;10.10;;;2.05;;
38851;SDS011;24605;50.092;9.182;2024-03-25T11:05:16;9.73;;;1.95;;
38851;SDS011;24605;50.092;9.182;2024-03-25T11:07:42;7.43;;;2.05;;
38851;SDS011;24605;50.092;9.182;2024-03-25T11:10:08;11.35;;;2.67;;
38851;SDS011;24605;50.092;9.182;2024-03-25T11:12:34;9.50;;;1.95;;
38851;SDS011;24605;50.092;9.182;2024-03-25T11:15:01;11.60;;;2.50;;
38851;SDS011;24605;50.092;9.182;2024-03-25T11:17:28;8.93;;;2.10;;
38851;SDS011;24605;50.092;9.182;2024-03-25T11:19:54;8.95;;;1.85;;
38851;SDS011;24605;50.092;9.182;2024-03-25T11:22:32;9.07;;;2.00;;
38851;SDS011;24605;50.092;9.182;2024-03-25T11:24:57;10.43;;;2.20;;
38851;SDS011;24605;50.092;9.182;2024-03-25T11:27:31;11.60;;;1.67;;
38851;SDS011;24605;50.092;9.182;2024-03-25T11:29:57;6.53;;;1.80;;
38851;SDS011;24605;50.092;9.182;2024-03-25T11:32:23;7.45;;;1.98;;
38851;SDS011;24605;50.092;9.182;2024-03-25T11:34:50;9.57;;;2.53;;
38851;SDS011;24605;50.092;9.182;2024-03-25T11:37:16;10.15;;;2.45;;
38851;SDS011;24605;50.092;9.182;2024-03-25T11:39:41;6.28;;;1.50;;
38851;SDS011;24605;50.092;9.182;2024-03-25T11:42:08;6.53;;;1.60;;
38851;SDS011;24605;50.092;9.182;2024-03-25T11:44:37;11.38;;;1.90;;
38851;SDS011;24605;50.092;9.182;2024-03-25T11:47:04;6.40;;;1.33;;
38851;SDS011;24605;50.092;9.182;2024-03-25T11:49:30;7.18;;;1.63;;
38851;SDS011;24605;50.092;9.182;2024-03-25T11:51:58;8.90;;;2.03;;
38851;SDS011;24605;50.092;9.182;2024-03-25T11:54:25;12.93;;;2.08;;
38851;SDS011;24605;50.092;9.182;2024-03-25T11:56:52;8.15;;;1.73;;
38851;SDS011;24605;50.092;9.182;2024-03-25T11:59:18;7.90;;;1.80;;
38851;SDS011;24605;50.092;9.182;2024-03-25T12:01:44;7.85;;;1.73;;
38851;SDS011;24605;50.092;9.182;2024-03-25T12:04:10;8.23;;;1.42;;
38851;SDS011;24605;50.092;9.182;2024-03-25T12:06:36;7.28;;;1.63;;
38851;SDS011;24605;50.092;9.182;2024-03-25T12:09:02;6.05;;;1.52;;
38851;SDS011;24605;50.092;9.182;2024-03-25T12:11:46;6.30;;;1.70;;
38851;SDS011;24605;50.092;9.182;2024-03-25T12:14:12;4.38;;;1.30;;
38851;SDS011;24605;50.092;9.182;2024-03-25T12:16:38;6.43;;;2.03;;
38851;SDS011;24605;50.092;9.182;2024-03-25T12:19:04;5.70;;;1.48;;
38851;SDS011;24605;50.092;9.182;2024-03-25T12:21:31;7.32;;;1.52;;
38851;SDS011;24605;50.092;9.182;2024-03-25T12:23:56;7.30;;;1.40;;
38851;SDS011;24605;50.092;9.182;2024-03-25T12:26:22;6.95;;;1.20;;
38851;SDS011;24605;50.092;9.182;2024-03-25T12:28:47;4.07;;;1.20;;
38851;SDS011;24605;50.092;9.182;2024-03-25T12:31:14;5.88;;;1.00;;
38851;SDS011;24605;50.092;9.182;2024-03-25T12:33:43;6.80;;;1.42;;
38851;SDS011;24605;50.092;9.182;2024-03-25T12:36:11;6.55;;;1.20;;
38851;SDS011;24605;50.092;9.182;2024-03-25T12:38:37;5.97;;;1.48;;
38851;SDS011;24605;50.092;9.182;2024-03-25T12:41:12;4.50;;;1.08;;
38851;SDS011;24605;50.092;9.182;2024-03-25T12:43:44;6.53;;;1.00;;
38851;SDS011;24605;50.092;9.182;2024-03-25T12:46:10;6.70;;;1.27;;
38851;SDS011;24605;50.092;9.182;2024-03-25T12:48:37;6.80;;;1.42;;
38851;SDS011;24605;50.092;9.182;2024-03-25T12:51:03;6.78;;;1.00;;
38851;SDS011;24605;50.092;9.182;2024-03-25T12:53:29;7.18;;;1.08;;
38851;SDS011;24605;50.092;9.182;2024-03-25T12:55:54;5.07;;;1.17;;
38851;SDS011;24605;50.092;9.182;2024-03-25T12:58:20;3.97;;;1.10;;
38851;SDS011;24605;50.092;9.182;2024-03-25T13:00:45;6.68;;;1.40;;
38851;SDS011;24605;50.092;9.182;2024-03-25T13:03:11;6.45;;;1.30;;
38851;SDS011;24605;50.092;9.182;2024-03-25T13:05:37;7.28;;;1.30;;
38851;SDS011;24605;50.092;9.182;2024-03-25T13:08:03;4.68;;;1.00;;
38851;SDS011;24605;50.092;9.182;2024-03-25T13:10:29;7.32;;;1.52;;
38851;SDS011;24605;50.092;9.182;2024-03-25T13:12:55;9.73;;;1.58;;
38851;SDS011;24605;50.092;9.182;2024-03-25T13:15:21;6.53;;;1.02;;
38851;SDS011;24605;50.092;9.182;2024-03-25T13:17:47;5.15;;;1.30;;
38851;SDS011;24605;50.092;9.182;2024-03-25T13:20:13;5.45;;;1.27;;
38851;SDS011;24605;50.092;9.182;2024-03-25T13:22:39;5.15;;;1.30;;
38851;SDS011;24605;50.092;9.182;2024-03-25T13:25:05;9.77;;;1.73;;
38851;SDS011;24605;50.092;9.182;2024-03-25T13:27:30;6.05;;;1.05;;
38851;SDS011;24605;50.092;9.182;2024-03-25T13:29:56;5.05;;;1.15;;
38851;SDS011;24605;50.092;9.182;2024-03-25T13:32:22;6.57;;;1.00;;
38851;SDS011;24605;50.092;9.182;2024-03-25T13:34:47;6.57;;;1.15;;
38851;SDS011;24605;50.092;9.182;2024-03-25T13:37:13;5.13;;;1.33;;
38851;SDS011;24605;50.092;9.182;2024-03-25T13:39:38;5.55;;;1.10;;
38851;SDS011;24605;50.092;9.182;2024-03-25T13:42:04;5.68;;;1.58;;
38851;SDS011;24605;50.092;9.182;2024-03-25T13:44:30;4.63;;;1.40;;
38851;SDS011;24605;50.092;9.182;2024-03-25T13:46:55;8.05;;;1.70;;
38851;SDS011;24605;50.092;9.182;2024-03-25T13:49:21;7.63;;;1.65;;
38851;SDS011;24605;50.092;9.182;2024-03-25T13:51:46;5.82;;;1.70;;
38851;SDS011;24605;50.092;9.182;2024-03-25T13:54:12;8.32;;;1.50;;
38851;SDS011;24605;50.092;9.182;2024-03-25T13:56:37;4.60;;;0.90;;
38851;SDS011;24605;50.092;9.182;2024-03-25T13:59:03;5.40;;;1.30;;
38851;SDS011;24605;50.092;9.182;2024-03-25T14:01:28;9.18;;;1.63;;
38851;SDS011;24605;50.092;9.182;2024-03-25T14:03:54;5.55;;;1.70;;
38851;SDS011;24605;50.092;9.182;2024-03-25T14:06:19;6.05;;;1.17;;
38851;SDS011;24605;50.092;9.182;2024-03-25T14:08:45;6.80;;;1.63;;
38851;SDS011;24605;50.092;9.182;2024-03-25T14:11:10;5.72;;;1.40;;
38851;SDS011;24605;50.092;9.182;2024-03-25T14:13:36;2.38;;;1.05;;
38851;SDS011;24605;50.092;9.182;2024-03-25T14:16:02;5.93;;;1.45;;
38851;SDS011;24605;50.092;9.182;2024-03-25T14:18:27;5.88;;;1.40;;
38851;SDS011;24605;50.092;9.182;2024-03-25T14:20:53;9.65;;;1.95;;
38851;SDS011;24605;50.092;9.182;2024-03-25T14:23:18;5.53;;;1.40;;
38851;SDS011;24605;50.092;9.182;2024-03-25T14:25:44;4.60;;;1.10;;
38851;SDS011;24605;50.092;9.182;2024-03-25T14:28:10;6.88;;;1.10;;
38851;SDS011;24605;50.092;9.182;2024-03-25T14:30:35;5.72;;;1.20;;
38851;SDS011;24605;50.092;9.182;2024-03-25T14:33:01;6.28;;;1.45;;
38851;SDS011;24605;50.092;9.182;2024-03-25T14:35:27;4.38;;;1.48;;
38851;SDS011;24605;50.092;9.182;2024-03-25T14:37:52;6.63;;;1.10;;
38851;SDS011;24605;50.092;9.182;2024-03-25T14:40:18;4.15;;;1.15;;
38851;SDS011;24605;50.092;9.182;2024-03-25T14:42:43;5.82;;;1.10;;
38851;SDS011;24605;50.092;9.182;2024-03-25T14:45:09;3.42;;;0.98;;